Latest Weather Observations for Troughton Island

IDW60801

Issued at 11:03 am WST Thursday 27 April 2017 (issued every 30 minutes, with the page automatically refreshed every 10 minutes)

About weather observations | Map of weather stations | Latest weather observations for WA | Other Formats
Station Details ID: 001007 Name: TROUGHTON ISLAND Lat: -13.75 Lon: 126.15 Height: 6.0 m
Data from the previous 72 hours. | See also: Recent months at Troughton Island
Date/Time
WST
Temp
°C
App
Temp
°C
Dew
Point
°C
Rel
Hum
%
Delta-T
°C
Wind Press
QNH
hPa
Press
MSL
hPa
Rain since
9am
mm
Dir  Spd
km/h
Gust
km/h
Spd
kts
Gust
kts
27/11:00am 32.4 31.3 22.8 57 6.6 ENE 33 41 18 22 1011.7 1011.6 0.0
27/10:30am 33.4 34.1 23.7 56 6.8 E 26 32 14 17 1011.9 1011.8 0.0
27/10:00am 33.0 33.3 23.6 57 6.5 E 28 35 15 19 1012.4 1012.3 0.0
27/09:30am 32.8 33.5 22.9 56 6.8 ESE 24 30 13 16 1012.5 1012.4 0.0
27/09:00am 32.7 33.3 22.8 56 6.8 ESE 24 32 13 17 1012.6 1012.5 0.0
27/08:30am 32.0 32.1 21.8 54 6.9 SE 24 28 13 15 1012.5 1012.4 0.0
27/08:00am 31.6 33.0 22.9 60 6.0 SE 20 26 11 14 1012.3 1012.2 0.0
27/07:30am 31.1 33.3 24.0 66 4.9 SSE 19 22 10 12 1012.3 1012.2 0.0
27/07:00am 30.0 33.7 25.1 75 3.4 SSE 15 17 8 9 1012.0 1011.9 0.0
27/06:30am 29.5 33.4 25.5 79 2.8 S 15 17 8 9 1011.6 1011.5 0.0
27/06:00am 28.7 32.5 25.3 82 2.4 SSE 15 17 8 9 1011.0 1010.9 0.0
27/05:30am 28.6 32.7 25.2 82 2.4 S 13 17 7 9 1010.8 1010.7 0.0
27/05:00am 28.9 32.3 25.3 81 2.5 S 17 20 9 11 1010.5 1010.4 0.0
27/04:30am 28.8 32.7 26.0 85 2.0 SSW 17 20 9 11 1010.4 1010.3 0.0
27/04:00am 28.7 32.5 25.9 85 2.0 SSW 17 19 9 10 1010.2 1010.1 0.0
27/03:30am 28.8 33.4 26.0 85 2.0 SSW 13 17 7 9 1010.1 1010.0 0.0
27/03:00am 28.7 33.1 25.7 84 2.1 SSW 13 15 7 8 1010.0 1009.9 0.0
27/02:30am 28.7 33.4 25.5 83 2.3 SSW 11 11 6 6 1010.1 1010.0 0.0
27/02:00am 28.9 32.7 25.3 81 2.5 SW 15 19 8 10 1010.2 1010.1 0.0
27/01:30am 28.8 31.9 25.4 82 2.4 SSW 19 20 10 11 1010.2 1010.1 0.0
27/01:00am 28.8 32.2 25.8 84 2.1 SSW 19 22 10 12 1010.4 1010.3 0.0
27/12:30am 29.1 33.4 24.9 78 2.9 S 11 13 6 7 1010.8 1010.7 0.0
27/12:00am 28.8 33.0 24.1 76 3.3 SE 9 11 5 6 1010.9 1010.8 0.0
 
Date/Time
WST
Temp
°C
App
Temp
°C
Dew
Point
°C
Rel
Hum
%
Delta-T
°C
Wind Press
QNH
hPa
Press
MSL
hPa
Rain since
9am
mm
Dir  Spd
km/h
Gust
km/h
Spd
kts
Gust
kts
26/11:30pm 29.0 33.3 24.3 76 3.3 SE 9 11 5 6 1011.1 1011.0 0.0
26/11:00pm 29.2 33.1 24.3 75 3.4 E 11 13 6 7 1011.3 1011.2 0.0
26/10:30pm 29.5 32.7 24.4 74 3.6 ENE 15 17 8 9 1011.5 1011.4 0.0
26/10:00pm 29.6 32.5 24.5 74 3.6 ENE 17 20 9 11 1011.7 1011.6 0.0
26/09:30pm 29.6 32.8 24.9 76 3.3 NE 17 20 9 11 1011.9 1011.8 0.0
26/09:00pm 29.7 32.3 24.6 74 3.6 ENE 19 24 10 13 1012.0 1011.9 0.0
26/08:30pm 29.8 32.0 24.2 72 3.9 NE 20 26 11 14 1011.9 1011.8 0.0
26/08:00pm 29.9 31.5 23.8 70 4.2 ENE 22 28 12 15 1011.6 1011.5 0.0
26/07:30pm 29.8 31.2 24.2 72 3.9 ENE 24 28 13 15 1011.2 1011.1 0.0
26/07:00pm 29.7 32.1 24.6 74 3.6 NE 20 24 11 13 1010.8 1010.7 0.0
26/06:30pm 29.7 32.1 24.6 74 3.6 NE 20 28 11 15 1010.2 1010.1 0.0
26/06:00pm 29.9 32.4 24.8 74 3.6 NE 20 24 11 13 1009.8 1009.7 0.0
26/05:30pm 30.0 32.4 24.6 73 3.8 NE 20 24 11 13 1009.6 1009.5 0.0
26/05:00pm 30.6 33.0 24.3 69 4.4 NE 19 24 10 13 1009.4 1009.3 0.0
26/04:30pm 31.2 34.0 24.3 66 4.8 NE 17 20 9 11 1009.1 1009.0 0.0
26/04:00pm 31.5 33.7 23.3 61 5.7 NE 17 20 9 11 1009.0 1008.9 0.0
26/03:30pm 32.1 34.0 22.8 58 6.4 NE 17 20 9 11 1008.8 1008.7 0.0
26/03:00pm 32.5 34.2 22.3 55 7.0 NE 17 20 9 11 1008.5 1008.4 0.0
26/02:30pm 33.2 34.8 21.4 50 8.0 NE 15 20 8 11 1008.7 1008.6 0.0
26/02:00pm 33.3 35.6 22.7 53 7.3 NE 15 19 8 10 1009.0 1008.9 0.0
26/01:30pm 32.9 36.2 23.8 58 6.3 NE 13 17 7 9 1009.3 1009.2 0.0
26/01:00pm 32.9 36.3 24.6 61 5.8 NE 15 17 8 9 1009.7 1009.6 0.0
26/12:30pm 32.8 37.2 25.1 64 5.4 ENE 11 13 6 7 1010.0 1009.9 0.0
26/12:00pm 33.3 36.3 23.3 55 6.9 E 13 15 7 8 1010.2 1010.1 0.0
26/11:30am 33.8 36.8 22.6 52 7.7 ESE 11 15 6 8 1010.6 1010.5 0.0
26/11:00am 33.3 37.0 23.9 58 6.6 SSE 11 15 6 8 1010.9 1010.8 0.0
26/10:30am 32.1 37.0 25.9 70 4.4 SSE 11 15 6 8 1011.2 1011.1 0.0
26/10:00am 32.2 37.5 26.5 72 4.1 SE 11 15 6 8 1011.5 1011.4 0.0
26/09:30am 31.4 36.5 26.2 74 3.7 SE 11 15 6 8 1011.5 1011.4 0.0
26/09:00am 31.1 36.0 25.9 74 3.7 SSE 11 15 6 8 1011.7 1011.6 0.0
26/08:30am 31.4 36.3 26.4 75 3.6 S 13 15 7 8 1011.7 1011.6 0.0
26/08:00am 31.0 35.4 26.3 76 3.4 S 15 17 8 9 1011.8 1011.7 0.0
26/07:30am 30.8 35.2 26.3 77 3.2 SSW 15 17 8 9 1011.9 1011.8 0.0
26/07:00am 30.4 34.5 26.3 79 2.9 SSW 17 20 9 11 1011.8 1011.7 0.0
26/06:30am 29.6 33.5 26.0 81 2.6 SW 17 20 9 11 1011.3 1011.2 0.0
26/06:00am 29.1 32.8 25.7 82 2.4 SW 17 20 9 11 1011.0 1010.9 0.0
26/05:30am 29.0 32.2 25.8 83 2.3 SW 20 26 11 14 1010.5 1010.4 0.0
26/05:00am 29.1 31.8 25.7 82 2.4 SW 22 26 12 14 1010.3 1010.2 0.0
26/04:30am 29.1 31.7 25.5 81 2.5 SW 22 26 12 14 1010.2 1010.1 0.0
26/04:00am 29.1 31.6 25.3 80 2.7 SW 22 26 12 14 1010.2 1010.1 0.0
26/03:30am 29.1 32.1 25.5 81 2.5 SW 20 24 11 13 1010.3 1010.2 0.0
26/03:00am 29.0 32.1 25.4 81 2.5 SW 19 20 10 11 1010.3 1010.2 0.0
26/02:30am 28.9 32.6 25.7 83 2.3 WSW 17 20 9 11 1010.6 1010.5 0.0
26/02:00am 29.0 32.4 25.8 83 2.3 WSW 19 20 10 11 1010.7 1010.6 0.0
26/01:30am 29.0 33.2 26.0 84 2.1 WSW 15 17 8 9 1010.9 1010.8 0.0
26/01:00am 28.9 33.6 26.1 85 2.0 WSW 13 15 7 8 1011.3 1011.2 0.0
26/12:30am 28.7 34.0 25.9 85 2.0 W 9 11 5 6 1011.5 1011.4 0.0
26/12:00am 28.6 34.2 25.8 85 2.0 W 7 9 4 5 1011.8 1011.7 0.0
 
Date/Time
WST
Temp
°C
App
Temp
°C
Dew
Point
°C
Rel
Hum
%
Delta-T
°C
Wind Press
QNH
hPa
Press
MSL
hPa
Rain since
9am
mm
Dir  Spd
km/h
Gust
km/h
Spd
kts
Gust
kts
25/11:30pm 28.7 34.1 25.5 83 2.3 WSW 7 7 4 4 1012.2 1012.1 0.0
25/11:00pm 29.0 34.3 25.8 83 2.3 SW 9 11 5 6 1012.4 1012.3 0.0
25/10:30pm 29.1 34.4 25.9 83 2.3 SW 9 11 5 6 1012.5 1012.4 0.0
25/10:00pm 29.3 34.5 25.7 81 2.5 SW 9 11 5 6 1012.6 1012.5 0.0
25/09:30pm 29.5 33.9 25.7 80 2.7 WSW 13 13 7 7 1012.7 1012.6 0.0
25/09:00pm 29.5 34.3 25.7 80 2.7 WSW 11 13 6 7 1012.8 1012.7 0.0
25/08:30pm 29.4 34.5 25.6 80 2.7 WSW 9 13 5 7 1012.8 1012.7 0.0
25/08:00pm 29.2 34.5 25.8 82 2.4 W 9 11 5 6 1012.5 1012.4 0.0
25/07:30pm 29.1 34.6 25.3 80 2.7 WNW 6 7 3 4 1012.1 1012.0 0.0
25/07:00pm 29.4 34.8 25.4 79 2.8 WNW 7 9 4 5 1011.7 1011.6 0.0
25/06:30pm 29.6 34.6 25.4 78 3.0 W 9 11 5 6 1011.1 1011.0 0.0
25/06:00pm 29.9 34.5 25.4 77 3.2 W 11 13 6 7 1010.7 1010.6 0.0
25/05:30pm 30.2 34.4 25.3 75 3.5 W 13 15 7 8 1010.5 1010.4 0.0
25/05:00pm 30.8 34.8 25.6 74 3.7 W 15 19 8 10 1010.2 1010.1 0.0
25/04:30pm 31.6 35.3 25.2 69 4.5 W 15 19 8 10 1009.7 1009.6 0.0
25/04:00pm 32.4 36.0 25.0 65 5.2 W 15 17 8 9 1009.4 1009.3 0.0
25/03:30pm 32.7 35.5 23.6 58 6.3 W 15 17 8 9 1009.2 1009.1 0.0
25/03:00pm 32.4 34.8 23.6 59 6.1 W 17 20 9 11 1009.1 1009.0 0.0
25/02:30pm 32.2 35.4 24.3 63 5.5 WSW 15 17 8 9 1009.0 1008.9 0.0
25/02:00pm 32.5 35.6 24.8 64 5.4 WSW 17 20 9 11 1009.3 1009.2 0.0
25/01:30pm 32.5 35.0 24.5 62 5.6 WSW 19 20 10 11 1009.7 1009.6 0.0
25/01:00pm 32.3 35.4 25.4 67 4.9 WSW 19 20 10 11 1010.1 1010.0 0.0
25/12:30pm 32.2 35.3 24.8 65 5.2 WSW 17 20 9 11 1010.4 1010.3 0.0
25/12:00pm 33.7 35.6 23.4 55 7.2 SW 19 22 10 12 1010.9 1010.8 0.0
25/11:30am 33.5 36.2 24.1 58 6.6 SW 17 22 9 12 1011.3 1011.2 0.0
25/11:00am 32.3 34.7 24.3 62 5.6 SW 19 24 10 13 1011.8 1011.7 0.0
25/10:30am 33.2 35.7 24.7 61 6.0 SW 20 24 11 13 1012.2 1012.1 0.0
25/10:00am 32.8 35.2 24.3 61 6.0 SW 19 22 10 12 1012.5 1012.4 0.0
25/09:30am 32.6 35.1 23.8 59 6.1 SW 17 20 9 11 1012.7 1012.6 0.0
25/09:00am 31.5 34.2 24.1 65 5.2 SW 17 20 9 11 1012.7 1012.6 0.0
25/08:30am 32.3 35.0 23.5 59 6.1 SW 15 19 8 10 1012.6 1012.5 0.0
25/08:00am 31.7 34.3 24.0 63 5.4 SW 17 19 9 10 1012.6 1012.5 0.0
25/07:30am 30.7 34.1 24.6 70 4.3 SW 15 17 8 9 1012.5 1012.4 0.0
25/07:00am 30.0 33.6 24.4 72 3.9 SW 13 17 7 9 1012.2 1012.1 0.0
25/06:30am 29.3 32.9 23.7 72 3.9 SW 11 13 6 7 1012.1 1012.0 0.0
25/06:00am 29.3 32.0 23.5 71 4.0 SW 15 17 8 9 1011.6 1011.5 0.0
25/05:30am 29.0 32.0 23.4 72 3.8 WSW 13 15 7 8 1011.4 1011.3 0.0
25/05:00am 28.6 32.3 23.9 75 3.2 WSW 11 13 6 7 1011.2 1011.1 0.0
25/04:30am 28.8 32.3 23.5 73 3.6 WSW 11 13 6 7 1010.9 1010.8 0.0
25/04:00am 28.9 31.9 23.3 72 3.8 SW 13 15 7 8 1010.9 1010.8 0.0
25/03:30am 28.9 32.0 23.6 73 3.6 WSW 13 15 7 8 1011.0 1010.9 0.0
25/03:00am 28.8 32.5 23.9 75 3.4 WSW 11 13 6 7 1010.9 1010.8 0.0
25/02:30am 28.9 32.9 23.8 74 3.5 WSW 9 11 5 6 1010.9 1010.8 0.0
25/02:00am 28.9 32.7 24.0 75 3.4 WSW 11 13 6 7 1011.2 1011.1 0.0
25/01:30am 28.9 33.3 24.5 77 3.1 WSW 9 11 5 6 1011.3 1011.2 0.0
25/01:00am 28.7 33.2 24.0 76 3.3 WSW 7 9 4 5 1011.7 1011.6 0.0
25/12:30am 28.6 33.0 23.5 74 3.5 WSW 6 7 3 4 1011.8 1011.7 0.0
25/12:00am 28.7 33.3 23.8 75 3.4 SW 6 7 3 4 1012.1 1012.0 0.0
 
Date/Time
WST
Temp
°C
App
Temp
°C
Dew
Point
°C
Rel
Hum
%
Delta-T
°C
Wind Press
QNH
hPa
Press
MSL
hPa
Rain since
9am
mm
Dir  Spd
km/h
Gust
km/h
Spd
kts
Gust
kts
24/11:30pm 28.7 33.3 23.8 75 3.4 WSW 6 6 3 3 1012.4 1012.3 0.0
24/11:00pm 28.9 33.4 23.6 73 3.6 W 6 7 3 4 1012.7 1012.6 0.0
24/10:30pm 29.2 33.3 23.9 73 3.7 W 9 9 5 5 1012.7 1012.6 0.0
24/10:00pm 29.2 33.9 24.3 75 3.4 W 7 9 4 5 1012.7 1012.6 0.0
24/09:30pm 29.0 33.5 23.9 74 3.5 WNW 7 9 4 5 1012.9 1012.8 0.0
24/09:00pm 29.4 33.9 24.0 72 3.7 WNW 7 9 4 5 1013.2 1013.1 0.0
24/08:30pm 29.6 33.7 24.0 72 3.9 WSW 9 9 5 5 1013.2 1013.1 0.0
24/08:00pm 29.7 34.0 23.6 69 4.2 W 7 9 4 5 1013.0 1012.9 0.0
24/07:30pm 30.0 34.3 23.7 69 4.4 WNW 7 9 4 5 1012.8 1012.7 0.0
24/07:00pm 30.2 34.1 23.6 67 4.6 WNW 9 11 5 6 1012.3 1012.2 0.0
24/06:30pm 30.4 34.0 23.8 68 4.6 W 11 13 6 7 1011.9 1011.8 0.0
24/06:00pm 30.3 33.2 23.2 65 4.9 W 13 15 7 8 1011.5 1011.4 0.0
24/05:30pm 30.5 33.0 23.2 65 5.0 W 15 17 8 9 1011.4 1011.3 0.0
24/05:00pm 30.9 33.3 23.0 62 5.4 W 15 17 8 9 1010.9 1010.8 0.0
24/04:30pm 31.6 33.8 23.2 61 5.8 W 17 19 9 10 1010.3 1010.2 0.0
24/04:00pm 31.8 34.8 24.7 66 5.0 W 17 20 9 11 1009.9 1009.8 0.0
24/03:30pm 32.3 35.6 25.1 65 5.1 W 17 20 9 11 1009.8 1009.7 0.0
24/03:00pm 32.4 35.1 24.2 62 5.7 WSW 17 20 9 11 1009.7 1009.6 0.0
24/02:30pm 32.6 35.5 24.4 62 5.8 WSW 17 20 9 11 1009.8 1009.7 0.0
24/02:00pm 33.2 35.6 22.9 54 7.1 WSW 15 19 8 10 1010.0 1009.9 0.0
24/01:30pm 33.2 35.0 22.6 53 7.3 WSW 17 20 9 11 1010.3 1010.2 0.0
24/01:00pm 33.6 35.1 22.7 53 7.5 SW 19 24 10 13 1010.7 1010.6 0.0
24/12:30pm 33.6 35.1 23.0 54 7.3 SW 20 24 11 13 1010.9 1010.8 0.0
24/12:00pm 33.3 35.1 23.3 55 6.9 SW 19 22 10 12 1011.3 1011.2 0.0
24/11:30am 32.8 35.2 24.3 61 6.0 SW 19 24 10 13 1011.8 1011.7 0.0

Other Formats:

Comma delimited format used in spreadsheet applications
http://www.bom.gov.au/fwo/IDW60801/IDW60801.94102.axf

JavaScript Object Notation format (JSON) in row-major order
http://www.bom.gov.au/fwo/IDW60801/IDW60801.94102.json